createdAt,value
2023-04-24T00:03:03.105Z,96922.00
2023-04-24T00:08:31.239Z,96918.00
2023-04-24T00:14:02.231Z,96918.00
2023-04-24T00:19:31.406Z,96907.00
2023-04-24T00:24:53.851Z,96920.00
2023-04-24T00:30:15.479Z,96900.00
2023-04-24T00:35:37.040Z,96910.00
2023-04-24T00:41:27.691Z,96913.00
2023-04-24T00:47:22.133Z,96905.00
2023-04-24T00:53:02.445Z,96906.00
2023-04-24T00:58:47.478Z,96897.00
2023-04-24T01:04:13.443Z,96897.00
2023-04-24T01:09:58.639Z,96899.00
2023-04-24T01:15:37.531Z,96901.00
2023-04-24T01:21:18.639Z,96900.00
2023-04-24T01:27:20.900Z,96887.00
2023-04-24T01:33:05.625Z,96889.00
2023-04-24T01:38:35.986Z,96889.00
2023-04-24T01:44:04.549Z,96892.00
2023-04-24T01:49:29.732Z,96892.00
2023-04-24T01:54:51.291Z,96904.00
2023-04-24T02:00:13.316Z,96894.00
2023-04-24T02:05:42.305Z,96895.00
2023-04-24T02:11:29.226Z,96895.00
2023-04-24T02:17:13.981Z,96906.00
2023-04-24T02:23:04.343Z,96898.00
2023-04-24T02:28:36.918Z,96900.00
2023-04-24T02:34:04.223Z,96900.00
2023-04-24T02:39:29.989Z,96896.00
2023-04-24T02:44:52.500Z,96897.00
2023-04-24T02:50:14.257Z,96896.00
2023-04-24T02:55:35.908Z,96891.00
2023-04-24T03:00:57.481Z,96888.00
2023-04-24T03:06:19.077Z,96888.00
2023-04-24T03:17:47.007Z,96897.00
2023-04-24T03:23:34.806Z,96899.00
2023-04-24T03:29:05.980Z,96895.00
2023-04-24T03:34:33.425Z,96894.00
2023-04-24T03:39:56.867Z,96892.00
2023-04-24T03:45:20.693Z,96895.00
2023-04-24T03:50:44.772Z,96899.00
2023-04-24T03:56:30.037Z,96908.00
2023-04-24T04:02:09.668Z,96899.00
2023-04-24T04:07:45.904Z,96890.00
2023-04-24T04:13:11.728Z,96884.00
2023-04-24T04:18:37.317Z,96890.00
2023-04-24T04:24:06.299Z,96901.00
2023-04-24T04:29:32.676Z,96900.00
2023-04-24T04:34:55.702Z,96895.00
2023-04-24T04:40:20.292Z,96897.00
2023-04-24T04:52:12.311Z,96884.00
2023-04-24T04:57:58.623Z,96881.00
2023-04-24T05:03:38.733Z,96897.00
2023-04-24T05:09:04.878Z,96909.00
2023-04-24T05:14:40.477Z,96914.00
2023-04-24T05:20:02.609Z,96913.00
2023-04-24T05:25:28.286Z,96919.00
2023-04-24T05:31:25.013Z,96931.00
2023-04-24T05:37:14.653Z,96935.00
2023-04-24T05:43:02.310Z,96935.00
2023-04-24T05:48:41.474Z,96925.00
2023-04-24T05:54:10.631Z,96924.00
2023-04-24T05:59:34.683Z,96929.00
2023-04-24T06:05:00.877Z,96925.00
2023-04-24T06:10:22.202Z,96926.00
2023-04-24T06:15:45.682Z,96928.00
2023-04-24T06:21:27.893Z,96928.00
2023-04-24T06:27:17.816Z,96921.00
2023-04-24T06:33:18.716Z,96932.00
2023-04-24T06:38:52.683Z,96928.00
2023-04-24T06:44:20.440Z,96919.00
2023-04-24T06:49:44.588Z,96915.00
2023-04-24T06:55:06.703Z,96919.00
2023-04-24T07:00:28.572Z,96907.00
2023-04-24T07:06:14.301Z,96917.00
2023-04-24T07:11:49.126Z,96929.00
2023-04-24T07:17:35.199Z,96942.00
2023-04-24T07:23:23.094Z,96938.00
2023-04-24T07:29:01.872Z,96940.00
2023-04-24T07:34:28.590Z,96934.00
2023-04-24T07:39:50.591Z,96930.00
2023-04-24T07:45:11.947Z,96947.00
2023-04-24T07:50:33.669Z,96943.00
2023-04-24T07:55:57.689Z,96949.00
2023-04-24T08:01:31.256Z,96956.00
2023-04-24T08:07:10.455Z,96963.00
2023-04-24T08:12:54.326Z,96965.00
2023-04-24T08:18:32.956Z,96969.00
2023-04-24T08:24:10.343Z,96976.00
2023-04-24T08:29:35.449Z,96970.00
2023-04-24T08:34:58.109Z,96965.00
2023-04-24T08:40:20.984Z,96967.00
2023-04-24T08:45:42.865Z,96964.00
2023-04-24T08:51:40.555Z,96963.00
2023-04-24T08:57:27.467Z,96966.00
2023-04-24T09:03:23.630Z,96969.00
2023-04-24T09:08:49.492Z,96974.00
2023-04-24T09:14:22.972Z,96971.00
2023-04-24T09:19:46.052Z,96968.00
2023-04-24T09:25:13.686Z,96963.00
2023-04-24T09:30:35.247Z,96957.00
2023-04-24T09:36:10.266Z,96975.00
2023-04-24T09:42:11.084Z,96979.00
2023-04-24T09:48:02.432Z,96972.00
2023-04-24T09:53:44.333Z,96973.00
2023-04-24T09:59:27.227Z,96974.00
2023-04-24T10:05:08.990Z,96962.00
2023-04-24T10:10:50.139Z,96961.00
2023-04-24T10:16:26.440Z,96965.00
2023-04-24T10:22:13.746Z,96966.00
2023-04-24T10:27:55.238Z,96970.00
2023-04-24T10:33:42.456Z,96969.00
2023-04-24T10:39:15.621Z,96975.00
2023-04-24T10:44:39.054Z,96979.00
2023-04-24T10:50:01.467Z,96975.00
2023-04-24T10:55:53.457Z,96996.00
2023-04-24T11:02:01.095Z,97002.00
2023-04-24T11:07:52.002Z,96984.00
2023-04-24T11:13:37.842Z,96988.00
2023-04-24T11:19:20.217Z,97006.00
2023-04-24T11:24:48.901Z,97036.00
2023-04-24T11:30:20.853Z,97033.00
2023-04-24T11:35:42.969Z,97026.00
2023-04-24T11:47:26.426Z,97029.00
2023-04-24T11:53:00.892Z,97042.00
2023-04-24T11:58:39.825Z,97039.00
2023-04-24T12:09:48.016Z,97050.00
2023-04-24T12:15:10.519Z,97052.00
2023-04-24T12:20:33.697Z,97052.00
2023-04-24T12:26:22.905Z,97042.00
2023-04-24T12:32:01.254Z,97053.00
2023-04-24T12:37:49.990Z,97060.00
2023-04-24T12:43:31.013Z,97060.00
2023-04-24T12:49:03.683Z,97045.00
2023-04-24T12:54:37.736Z,97044.00
2023-04-24T13:00:01.012Z,97040.00
2023-04-24T13:05:42.106Z,97031.00
2023-04-24T13:11:10.040Z,97039.00
2023-04-24T13:16:44.818Z,97042.00
2023-04-24T13:22:23.977Z,97040.00
2023-04-24T13:27:59.671Z,97036.00
2023-04-24T13:33:27.992Z,97041.00
2023-04-24T13:39:04.867Z,97042.00
2023-04-24T13:44:33.484Z,97033.00
2023-04-24T13:49:55.420Z,97029.00
2023-04-24T13:55:16.745Z,97028.00
2023-04-24T14:00:38.226Z,97031.00
2023-04-24T14:06:28.401Z,97026.00
2023-04-24T14:12:29.377Z,97026.00
2023-04-24T14:18:03.730Z,97038.00
2023-04-24T14:23:43.054Z,97030.00
2023-04-24T14:29:15.060Z,97029.00
2023-04-24T14:34:37.951Z,97026.00
2023-04-24T14:40:11.771Z,97033.00
2023-04-24T14:45:42.461Z,97025.00
2023-04-24T14:51:29.575Z,97031.00
2023-04-24T14:57:18.223Z,97039.00
2023-04-24T15:02:57.437Z,97042.00
2023-04-24T15:08:29.008Z,97051.00
2023-04-24T15:13:57.866Z,97049.00
2023-04-24T15:19:25.260Z,97052.00
2023-04-24T15:24:48.754Z,97065.00
2023-04-24T15:30:11.686Z,97071.00
2023-04-24T15:35:33.495Z,97077.00
2023-04-24T15:47:00.170Z,97096.00
2023-04-24T15:52:48.436Z,97107.00
2023-04-24T15:58:35.181Z,97111.00
2023-04-24T16:04:20.911Z,97134.00
2023-04-24T16:09:47.237Z,97133.00
2023-04-24T16:15:35.414Z,97143.00
2023-04-24T16:21:11.515Z,97144.00
2023-04-24T16:26:55.479Z,97145.00
2023-04-24T16:32:27.643Z,97141.00
2023-04-24T16:38:10.006Z,97151.00
2023-04-24T16:43:40.387Z,97146.00
2023-04-24T16:49:12.856Z,97146.00
2023-04-24T16:54:36.065Z,97153.00
2023-04-24T16:59:57.682Z,97159.00
2023-04-24T17:05:45.425Z,97166.00
2023-04-24T17:11:24.094Z,97166.00
2023-04-24T17:17:16.853Z,97169.00
2023-04-24T17:22:59.482Z,97179.00
2023-04-24T17:28:44.219Z,97173.00
2023-04-24T17:34:14.543Z,97180.00
2023-04-24T17:39:36.824Z,97182.00
2023-04-24T17:44:58.430Z,97206.00
2023-04-24T17:50:19.992Z,97189.00
2023-04-24T17:55:43.738Z,97193.00
2023-04-24T18:01:05.556Z,97199.00
2023-04-24T18:12:38.716Z,97252.00
2023-04-24T18:18:13.532Z,97253.00
2023-04-24T18:23:46.955Z,97249.00
2023-04-24T18:29:13.325Z,97262.00
2023-04-24T18:34:36.110Z,97257.00
2023-04-24T18:39:57.768Z,97266.00
2023-04-24T18:45:19.420Z,97271.00
2023-04-24T18:50:40.960Z,97280.00
2023-04-24T18:56:25.832Z,97281.00
2023-04-24T19:01:54.062Z,97283.00
2023-04-24T19:07:37.060Z,97293.00
2023-04-24T19:13:28.689Z,97303.00
2023-04-24T19:19:06.130Z,97311.00
2023-04-24T19:24:29.619Z,97309.00
2023-04-24T19:29:52.296Z,97313.00
2023-04-24T19:35:13.605Z,97303.00
2023-04-24T19:40:35.095Z,97307.00
2023-04-24T19:46:10.563Z,97309.00
2023-04-24T19:52:10.254Z,97315.00
2023-04-24T20:03:45.709Z,97321.00
2023-04-24T20:09:08.882Z,97316.00
2023-04-24T20:14:32.430Z,97319.00
2023-04-24T20:19:54.307Z,97311.00
2023-04-24T20:25:16.421Z,97312.00
2023-04-24T20:30:38.368Z,97313.00
2023-04-24T20:36:25.013Z,97318.00
2023-04-24T20:42:11.024Z,97313.00
2023-04-24T20:48:05.354Z,97309.00
2023-04-24T20:53:44.104Z,97319.00
2023-04-24T20:59:14.577Z,97315.00
2023-04-24T21:04:59.291Z,97321.00
2023-04-24T21:10:29.802Z,97311.00
2023-04-24T21:15:59.398Z,97310.00
2023-04-24T21:21:32.603Z,97310.00
2023-04-24T21:27:18.267Z,97310.00
2023-04-24T21:33:01.178Z,97314.00
2023-04-24T21:38:38.354Z,97303.00
2023-04-24T21:44:11.995Z,97292.00
2023-04-24T21:49:39.307Z,97308.00
2023-04-24T21:55:01.085Z,97294.00
2023-04-24T22:00:22.762Z,97288.00
2023-04-24T22:05:55.351Z,97291.00
2023-04-24T22:11:56.236Z,97291.00
2023-04-24T22:17:20.524Z,97293.00
2023-04-24T22:23:08.769Z,97303.00
2023-04-24T22:28:48.611Z,97296.00
2023-04-24T22:34:14.004Z,97303.00
2023-04-24T22:39:35.550Z,97290.00
2023-04-24T22:44:57.252Z,97295.00
2023-04-24T22:50:20.452Z,97299.00
2023-04-24T22:55:41.939Z,97285.00
2023-04-24T23:01:04.403Z,97293.00
2023-04-24T23:06:51.851Z,97296.00
2023-04-24T23:12:30.441Z,97302.00
2023-04-24T23:18:07.260Z,97290.00
2023-04-24T23:23:46.404Z,97292.00
2023-04-24T23:29:16.945Z,97287.00
2023-04-24T23:34:39.610Z,97282.00
2023-04-24T23:40:00.941Z,97288.00
2023-04-24T23:45:22.332Z,97279.00
2023-04-24T23:50:44.078Z,97279.00
2023-04-24T23:56:30.872Z,97271.00
